Main page
METAR-TAF:

METAR-TAF

Airports :

Weeze, Germany

Weeze Airport

latitude: 51-36-09N, longitude: 006-08-32E, elevation: 32 m

Current weather observation

The report was made 44 minutes ago, at 02:50 UTC
Wind 8 kt from the West/Southwest
Temperature 17°C
Humidity 82%
Pressure 1011 hPa
Visibility 10 km or more
Scattered clouds at a height of 1600 ft
Broken clouds at a height of 6800 ft

METAR: EDLV 260250Z 25008KT 9999 SCT016 BKN068 17/14 Q1011

Time: 05:34 (03:34 UTC)

Forecast

The report was made 10 hours and 34 minutes ago, at 17:00 UTC
Forecast valid from 25 at 18 UTC to 26 at 18 UTC
Wind 7 kt from the West
Visibility 10 km or more
Scattered clouds at a height of 4500 ft
Temporary
from 26 at 03 UTC to 26 at 07 UTC
Broken clouds at a height of 1200 ft
Becoming
from 26 at 10 UTC to 26 at 13 UTC
Wind 4 kt from the North/Northwest

TAF: EDLV 251700Z 2518/2618 27007KT 9999 SCT045 TEMPO 2603/2607 BKN012 BECMG 2610/2613 33004KT

Weather observations and forecasts of more than 4000 airports (METAR and TAF reports).

The available stations are represented by yellow and red dots on the map.

Hover mouse over dot to see the name of the station.

Then click to see weather observations and forecasts.

To change the map : click on the green buttons with a black cross to zoom in, on the green button with a dash to zoom out, or on the green arrows for adjacent maps.


METAR-TAF: